createdAt,value
2023-04-22T00:02:09.712Z,10.10
2023-04-22T00:04:37.770Z,10.85
2023-04-22T00:07:05.378Z,10.50
2023-04-22T00:09:32.809Z,9.07
2023-04-22T00:12:01.857Z,10.93
2023-04-22T00:14:29.257Z,13.48
2023-04-22T00:16:57.464Z,8.82
2023-04-22T00:19:25.675Z,9.05
2023-04-22T00:21:53.164Z,8.57
2023-04-22T00:24:20.579Z,8.20
2023-04-22T00:26:48.246Z,9.13
2023-04-22T00:29:15.659Z,6.37
2023-04-22T00:31:43.063Z,7.93
2023-04-22T00:34:10.849Z,7.82
2023-04-22T00:36:38.220Z,12.05
2023-04-22T00:39:06.433Z,9.50
2023-04-22T00:41:34.493Z,15.85
2023-04-22T00:44:01.919Z,10.57
2023-04-22T00:46:29.546Z,9.75
2023-04-22T00:48:57.510Z,7.53
2023-04-22T00:51:24.900Z,8.57
2023-04-22T00:53:52.507Z,11.18
2023-04-22T00:56:20.782Z,8.52
2023-04-22T00:58:48.233Z,8.13
2023-04-22T01:01:15.823Z,9.30
2023-04-22T01:03:43.695Z,8.43
2023-04-22T01:06:11.420Z,10.27
2023-04-22T01:08:40.889Z,8.68
2023-04-22T01:11:08.617Z,11.45
2023-04-22T01:13:38.153Z,9.77
2023-04-22T01:16:08.918Z,7.82
2023-04-22T01:18:37.233Z,7.43
2023-04-22T01:21:05.572Z,7.53
2023-04-22T01:23:33.016Z,7.85
2023-04-22T01:26:00.849Z,6.78
2023-04-22T01:28:28.778Z,8.10
2023-04-22T01:30:56.367Z,12.18
2023-04-22T01:33:24.210Z,9.80
2023-04-22T01:35:52.056Z,7.82
2023-04-22T01:38:19.644Z,8.80
2023-04-22T01:40:47.407Z,8.13
2023-04-22T01:43:14.824Z,7.68
2023-04-22T01:45:42.599Z,12.40
2023-04-22T01:48:11.265Z,8.18
2023-04-22T01:50:38.726Z,11.70
2023-04-22T01:53:07.555Z,10.98
2023-04-22T01:55:37.982Z,11.18
2023-04-22T01:58:05.693Z,9.82
2023-04-22T02:00:33.179Z,9.45
2023-04-22T02:03:01.041Z,12.95
2023-04-22T02:05:28.614Z,11.95
2023-04-22T02:07:56.434Z,8.77
2023-04-22T02:10:24.145Z,9.90
2023-04-22T02:12:51.510Z,12.00
2023-04-22T02:15:18.951Z,9.93
2023-04-22T02:17:47.030Z,9.88
2023-04-22T02:20:14.664Z,14.10
2023-04-22T02:22:43.559Z,10.70
2023-04-22T02:25:12.280Z,11.15
2023-04-22T02:27:40.030Z,11.10
2023-04-22T02:30:09.696Z,10.02
2023-04-22T02:32:38.865Z,11.40
2023-04-22T02:35:06.987Z,9.85
2023-04-22T02:37:34.448Z,12.02
2023-04-22T02:40:02.249Z,11.90
2023-04-22T02:42:30.475Z,9.70
2023-04-22T02:44:57.915Z,12.80
2023-04-22T02:47:25.700Z,9.63
2023-04-22T02:49:53.167Z,10.95
2023-04-22T02:52:20.776Z,8.85
2023-04-22T02:54:48.547Z,11.35
2023-04-22T02:57:15.987Z,8.70
2023-04-22T02:59:43.563Z,9.40
2023-04-22T03:02:13.340Z,8.98
2023-04-22T03:04:41.600Z,8.55
2023-04-22T03:07:09.554Z,12.30
2023-04-22T03:09:37.407Z,9.07
2023-04-22T03:12:05.226Z,6.80
2023-04-22T03:14:32.685Z,8.32
2023-04-22T03:17:00.425Z,9.10
2023-04-22T03:19:28.067Z,6.87
2023-04-22T03:21:56.555Z,8.18
2023-04-22T03:24:24.310Z,9.60
2023-04-22T03:26:52.003Z,8.50
2023-04-22T03:29:19.465Z,8.43
2023-04-22T03:31:47.263Z,10.80
2023-04-22T03:34:14.972Z,8.52
2023-04-22T03:36:42.962Z,10.90
2023-04-22T03:39:11.280Z,10.43
2023-04-22T03:41:39.427Z,9.45
2023-04-22T03:44:06.827Z,9.23
2023-04-22T03:46:35.009Z,9.32
2023-04-22T03:49:03.251Z,9.68
2023-04-22T03:51:32.248Z,12.85
2023-04-22T03:54:00.802Z,8.85
2023-04-22T03:56:28.886Z,12.02
2023-04-22T03:58:56.528Z,10.73
2023-04-22T04:01:24.566Z,10.75
2023-04-22T04:03:53.685Z,8.35
2023-04-22T04:06:21.742Z,10.10
2023-04-22T04:08:49.190Z,8.98
2023-04-22T04:11:17.089Z,9.77
2023-04-22T04:13:44.805Z,10.70
2023-04-22T04:16:12.874Z,10.02
2023-04-22T04:18:41.472Z,8.35
2023-04-22T04:21:09.033Z,8.80
2023-04-22T04:23:37.922Z,8.02
2023-04-22T04:26:05.783Z,8.82
2023-04-22T04:28:35.240Z,11.85
2023-04-22T04:31:03.058Z,11.43
2023-04-22T04:33:32.542Z,7.22
2023-04-22T04:36:00.699Z,10.43
2023-04-22T04:38:29.008Z,7.72
2023-04-22T04:40:56.858Z,11.12
2023-04-22T04:43:25.881Z,8.80
2023-04-22T04:45:54.143Z,10.02
2023-04-22T04:48:25.003Z,9.23
2023-04-22T04:50:54.203Z,9.30
2023-04-22T04:53:22.575Z,9.77
2023-04-22T04:55:50.009Z,9.18
2023-04-22T04:58:17.971Z,11.35
2023-04-22T05:00:46.937Z,7.03
2023-04-22T05:03:15.803Z,7.93
2023-04-22T05:05:46.276Z,11.05
2023-04-22T05:08:14.049Z,8.77
2023-04-22T05:10:42.493Z,8.57
2023-04-22T05:13:09.990Z,10.88
2023-04-22T05:15:37.855Z,8.57
2023-04-22T05:18:05.594Z,11.38
2023-04-22T05:20:35.907Z,10.90
2023-04-22T05:23:04.467Z,8.32
2023-04-22T05:25:32.641Z,7.05
2023-04-22T05:28:00.893Z,9.70
2023-04-22T05:30:30.003Z,11.05
2023-04-22T05:32:57.780Z,9.50
2023-04-22T05:35:25.231Z,8.43
2023-04-22T05:37:53.156Z,7.95
2023-04-22T05:40:20.791Z,10.88
2023-04-22T05:42:48.316Z,8.63
2023-04-22T05:45:16.162Z,8.55
2023-04-22T05:47:43.765Z,10.30
2023-04-22T05:50:11.574Z,8.27
2023-04-22T05:52:39.906Z,8.45
2023-04-22T05:55:08.215Z,10.27
2023-04-22T05:57:35.664Z,11.82
2023-04-22T06:00:04.952Z,8.55
2023-04-22T06:02:41.219Z,9.02
2023-04-22T06:05:09.760Z,7.25
2023-04-22T06:07:38.331Z,9.40
2023-04-22T06:10:07.575Z,7.25
2023-04-22T06:12:35.421Z,10.68
2023-04-22T06:15:03.158Z,6.22
2023-04-22T06:17:31.369Z,8.32
2023-04-22T06:19:59.391Z,8.80
2023-04-22T06:22:26.944Z,5.72
2023-04-22T06:24:54.417Z,8.52
2023-04-22T06:27:22.174Z,4.82
2023-04-22T06:29:49.666Z,11.63
2023-04-22T06:32:17.249Z,7.65
2023-04-22T06:34:45.140Z,11.63
2023-04-22T06:37:13.134Z,7.35
2023-04-22T06:39:41.013Z,11.95
2023-04-22T06:42:10.235Z,13.43
2023-04-22T06:44:38.524Z,11.18
2023-04-22T06:47:06.485Z,9.00
2023-04-22T06:49:38.637Z,9.85
2023-04-22T06:52:07.687Z,6.87
2023-04-22T06:54:35.282Z,7.68
2023-04-22T06:57:03.334Z,7.40
2023-04-22T06:59:30.819Z,6.28
2023-04-22T07:01:58.450Z,7.35
2023-04-22T07:04:29.286Z,5.22
2023-04-22T07:06:58.547Z,7.97
2023-04-22T07:09:26.653Z,5.62
2023-04-22T07:11:54.353Z,9.02
2023-04-22T07:14:21.785Z,10.18
2023-04-22T07:16:49.480Z,5.20
2023-04-22T07:19:17.011Z,6.32
2023-04-22T07:21:44.538Z,7.28
2023-04-22T07:24:13.240Z,6.50
2023-04-22T07:26:41.690Z,5.25
2023-04-22T07:29:09.164Z,6.07
2023-04-22T07:31:36.965Z,11.98
2023-04-22T07:34:04.714Z,5.28
2023-04-22T07:36:32.787Z,7.75
2023-04-22T07:39:00.460Z,8.00
2023-04-22T07:41:27.968Z,7.32
2023-04-22T07:43:55.752Z,14.23
2023-04-22T07:46:23.648Z,7.90
2023-04-22T07:48:51.146Z,6.68
2023-04-22T07:51:18.545Z,6.25
2023-04-22T07:53:46.405Z,6.40
2023-04-22T07:56:13.829Z,6.60
2023-04-22T07:58:41.205Z,7.80
2023-04-22T08:01:08.940Z,6.90
2023-04-22T08:03:36.951Z,5.68
2023-04-22T08:06:04.514Z,8.07
2023-04-22T08:08:31.950Z,7.43
2023-04-22T08:10:59.594Z,8.20
2023-04-22T08:13:27.056Z,5.53
2023-04-22T08:15:54.477Z,5.95
2023-04-22T08:18:22.248Z,6.53
2023-04-22T08:20:50.633Z,5.55
2023-04-22T08:23:18.087Z,4.95
2023-04-22T08:25:45.792Z,5.47
2023-04-22T08:28:13.211Z,6.75
2023-04-22T08:30:41.013Z,5.82
2023-04-22T08:33:08.780Z,6.43
2023-04-22T08:35:36.625Z,4.80
2023-04-22T08:38:04.023Z,4.82
2023-04-22T08:40:31.723Z,5.95
2023-04-22T08:42:59.194Z,7.20
2023-04-22T08:45:26.770Z,6.65
2023-04-22T08:47:54.721Z,5.32
2023-04-22T08:50:22.445Z,9.27
2023-04-22T08:52:49.910Z,7.30
2023-04-22T08:55:17.723Z,7.35
2023-04-22T08:57:45.388Z,6.97
2023-04-22T09:00:13.454Z,7.43
2023-04-22T09:02:44.942Z,5.87
2023-04-22T09:05:14.084Z,8.55
2023-04-22T09:07:42.051Z,5.68
2023-04-22T09:10:11.804Z,7.75
2023-04-22T09:12:41.178Z,5.90
2023-04-22T09:15:09.870Z,7.03
2023-04-22T09:17:41.416Z,8.15
2023-04-22T09:20:09.865Z,6.78
2023-04-22T09:22:42.820Z,6.95
2023-04-22T09:25:20.632Z,6.10
2023-04-22T09:27:52.135Z,7.18
2023-04-22T09:30:28.619Z,8.80
2023-04-22T09:33:00.563Z,7.97
2023-04-22T09:35:33.533Z,10.60
2023-04-22T09:38:02.680Z,5.87
2023-04-22T09:40:31.098Z,8.73
2023-04-22T09:43:02.544Z,8.88
2023-04-22T09:45:35.400Z,6.82
2023-04-22T09:48:04.208Z,6.10
2023-04-22T09:50:31.937Z,5.95
2023-04-22T09:53:05.365Z,7.10
2023-04-22T09:55:36.352Z,7.25
2023-04-22T09:58:14.743Z,9.10
2023-04-22T10:00:52.472Z,9.00
2023-04-22T10:03:20.446Z,9.07
2023-04-22T10:05:48.113Z,7.70
2023-04-22T10:08:16.780Z,7.70
2023-04-22T10:10:44.940Z,10.85
2023-04-22T10:13:12.465Z,5.55
2023-04-22T10:15:42.526Z,6.85
2023-04-22T10:18:13.036Z,6.85
2023-04-22T10:20:42.305Z,12.15
2023-04-22T10:23:16.134Z,6.00
2023-04-22T10:25:48.817Z,8.88
2023-04-22T10:28:17.585Z,6.45
2023-04-22T10:30:45.268Z,5.65
2023-04-22T10:33:23.670Z,9.13
2023-04-22T10:36:12.768Z,6.60
2023-04-22T10:38:42.381Z,7.35
2023-04-22T10:41:17.013Z,9.60
2023-04-22T10:43:48.779Z,12.40
2023-04-22T10:46:33.063Z,15.68
2023-04-22T10:49:07.144Z,7.50
2023-04-22T10:51:40.882Z,4.97
2023-04-22T10:54:31.412Z,7.28
2023-04-22T10:57:16.183Z,8.45
2023-04-22T10:59:54.458Z,7.05
2023-04-22T11:02:22.988Z,5.78
2023-04-22T11:04:54.427Z,5.45
2023-04-22T11:07:28.082Z,6.20
2023-04-22T11:10:05.407Z,8.27
2023-04-22T11:12:35.996Z,7.75
2023-04-22T11:15:08.029Z,8.85
2023-04-22T11:17:36.633Z,6.50
2023-04-22T11:20:05.267Z,7.70
2023-04-22T11:22:37.299Z,5.10
2023-04-22T11:25:06.077Z,5.80
2023-04-22T11:27:33.523Z,10.48
2023-04-22T11:30:00.875Z,7.28
2023-04-22T11:32:29.182Z,6.65
2023-04-22T11:34:57.860Z,6.37
2023-04-22T11:37:25.416Z,5.05
2023-04-22T11:40:13.557Z,7.40
2023-04-22T11:42:40.771Z,8.75
2023-04-22T11:45:09.056Z,6.75
2023-04-22T11:47:36.667Z,5.70
2023-04-22T11:50:09.325Z,5.53
2023-04-22T11:52:46.001Z,5.25
2023-04-22T11:55:14.893Z,9.68
2023-04-22T11:57:43.339Z,8.23
2023-04-22T12:00:13.655Z,7.53
2023-04-22T12:02:42.019Z,8.32
2023-04-22T12:05:11.803Z,5.68
2023-04-22T12:07:39.958Z,6.93
2023-04-22T12:10:08.174Z,8.35
2023-04-22T12:12:37.162Z,8.68
2023-04-22T12:15:13.608Z,8.45
2023-04-22T12:17:45.046Z,8.25
2023-04-22T12:20:13.083Z,6.45
2023-04-22T12:22:40.497Z,6.93
2023-04-22T12:25:09.921Z,7.32
2023-04-22T12:27:37.414Z,8.73
2023-04-22T12:30:06.066Z,7.82
2023-04-22T12:32:34.617Z,5.97
2023-04-22T12:35:02.096Z,7.47
2023-04-22T12:37:29.462Z,10.65
2023-04-22T12:39:57.182Z,8.27
2023-04-22T12:42:24.590Z,5.25
2023-04-22T12:44:51.952Z,7.12
2023-04-22T12:47:19.885Z,6.68
2023-04-22T12:49:47.739Z,5.50
2023-04-22T12:52:15.267Z,11.20
2023-04-22T12:54:42.935Z,10.80
2023-04-22T12:57:10.423Z,6.32
2023-04-22T12:59:38.078Z,10.15
2023-04-22T13:02:06.136Z,4.78
2023-04-22T13:04:33.731Z,7.80
2023-04-22T13:07:01.202Z,9.52
2023-04-22T13:09:28.940Z,6.15
2023-04-22T13:11:56.346Z,5.47
2023-04-22T13:14:23.793Z,5.50
2023-04-22T13:16:52.058Z,14.10
2023-04-22T13:19:19.843Z,10.00
2023-04-22T13:21:47.251Z,6.72
2023-04-22T13:24:14.928Z,5.45
2023-04-22T13:26:42.446Z,5.72
2023-04-22T13:29:14.119Z,6.10
2023-04-22T13:34:11.234Z,6.18
2023-04-22T13:36:38.635Z,5.97
2023-04-22T13:39:06.469Z,8.18
2023-04-22T13:41:33.990Z,6.03
2023-04-22T13:44:02.007Z,8.13
2023-04-22T13:46:30.001Z,5.85
2023-04-22T13:48:58.226Z,7.20
2023-04-22T13:51:25.843Z,5.32
2023-04-22T13:53:53.575Z,5.40
2023-04-22T13:56:20.993Z,9.95
2023-04-22T13:58:48.914Z,7.12
2023-04-22T14:01:16.898Z,5.78
2023-04-22T14:03:45.126Z,8.77
2023-04-22T14:06:12.663Z,5.72
2023-04-22T14:08:40.554Z,7.57
2023-04-22T14:11:08.949Z,6.97
2023-04-22T14:13:36.770Z,5.87
2023-04-22T14:16:09.734Z,7.57
2023-04-22T14:18:38.634Z,7.25
2023-04-22T14:21:09.186Z,9.38
2023-04-22T14:23:38.125Z,5.40
2023-04-22T14:26:08.333Z,5.53
2023-04-22T14:28:36.725Z,6.57
2023-04-22T14:31:04.323Z,6.25
2023-04-22T14:33:32.511Z,6.65
2023-04-22T14:36:00.007Z,8.88
2023-04-22T14:38:27.474Z,7.65
2023-04-22T14:40:55.283Z,5.70
2023-04-22T14:43:25.405Z,6.57
2023-04-22T14:45:53.102Z,5.57
2023-04-22T14:48:20.852Z,7.85
2023-04-22T14:50:48.252Z,5.43
2023-04-22T14:53:15.985Z,5.57
2023-04-22T14:55:43.687Z,4.28
2023-04-22T14:58:11.080Z,4.75
2023-04-22T15:00:38.586Z,11.57
2023-04-22T15:03:06.463Z,5.78
2023-04-22T15:05:33.965Z,6.45
2023-04-22T15:08:01.387Z,6.82
2023-04-22T15:10:29.052Z,6.57
2023-04-22T15:12:56.800Z,6.12
2023-04-22T15:15:24.299Z,5.90
2023-04-22T15:17:52.060Z,8.40
2023-04-22T15:20:22.715Z,7.57
2023-04-22T15:22:50.154Z,5.90
2023-04-22T15:25:18.458Z,4.95
2023-04-22T15:27:46.529Z,8.23
2023-04-22T15:30:14.473Z,5.82
2023-04-22T15:32:42.192Z,6.22
2023-04-22T15:35:10.045Z,6.85
2023-04-22T15:37:37.503Z,5.97
2023-04-22T15:40:06.895Z,6.22
2023-04-22T15:42:34.273Z,5.07
2023-04-22T15:45:03.873Z,5.85
2023-04-22T15:47:33.062Z,5.05
2023-04-22T15:50:06.719Z,8.20
2023-04-22T15:52:35.197Z,6.07
2023-04-22T15:55:02.613Z,5.12
2023-04-22T15:57:34.394Z,4.05
2023-04-22T16:02:43.247Z,9.85
2023-04-22T16:05:11.966Z,5.05
2023-04-22T16:07:40.242Z,6.43
2023-04-22T16:10:09.009Z,4.82
2023-04-22T16:12:36.835Z,5.43
2023-04-22T16:15:04.647Z,6.72
2023-04-22T16:17:32.276Z,5.85
2023-04-22T16:20:00.066Z,5.43
2023-04-22T16:22:27.482Z,5.00
2023-04-22T16:24:54.913Z,7.75
2023-04-22T16:27:22.607Z,6.35
2023-04-22T16:29:50.051Z,5.80
2023-04-22T16:32:17.441Z,5.30
2023-04-22T16:34:45.142Z,7.70
2023-04-22T16:37:12.525Z,6.45
2023-04-22T16:39:40.220Z,11.85
2023-04-22T16:42:08.197Z,5.87
2023-04-22T16:44:35.630Z,4.97
2023-04-22T16:47:03.131Z,4.22
2023-04-22T16:49:31.223Z,7.25
2023-04-22T16:51:59.017Z,7.00
2023-04-22T16:54:26.490Z,5.45
2023-04-22T16:56:54.153Z,4.18
2023-04-22T16:59:21.703Z,6.03
2023-04-22T17:01:49.231Z,5.85
2023-04-22T17:04:17.729Z,7.78
2023-04-22T17:06:45.997Z,6.10
2023-04-22T17:09:13.379Z,3.80
2023-04-22T17:11:41.101Z,10.68
2023-04-22T17:14:08.582Z,8.10
2023-04-22T17:16:36.218Z,5.57
2023-04-22T17:19:05.242Z,4.97
2023-04-22T17:21:34.334Z,5.37
2023-04-22T17:24:03.772Z,7.03
2023-04-22T17:26:32.384Z,8.63
2023-04-22T17:28:59.768Z,9.27
2023-04-22T17:31:27.225Z,9.25
2023-04-22T17:33:54.982Z,10.00
2023-04-22T17:36:22.417Z,10.05
2023-04-22T17:38:49.903Z,8.48
2023-04-22T17:41:18.543Z,9.13
2023-04-22T17:43:46.022Z,7.57
2023-04-22T17:46:13.495Z,11.30
2023-04-22T17:48:41.941Z,11.70
2023-04-22T17:51:10.150Z,7.68
2023-04-22T17:53:39.872Z,10.00
2023-04-22T17:56:08.590Z,7.55
2023-04-22T17:58:38.533Z,15.18
2023-04-22T18:01:06.459Z,10.40
2023-04-22T18:03:34.723Z,7.50
2023-04-22T18:06:02.705Z,8.80
2023-04-22T18:08:30.770Z,14.02
2023-04-22T18:10:58.625Z,16.42
2023-04-22T18:13:26.082Z,17.02
2023-04-22T18:15:53.589Z,17.35
2023-04-22T18:18:21.352Z,15.27
2023-04-22T18:20:48.809Z,16.05
2023-04-22T18:23:16.172Z,13.73
2023-04-22T18:25:43.930Z,12.98
2023-04-22T18:28:11.295Z,18.65
2023-04-22T18:30:38.744Z,11.77
2023-04-22T18:33:06.530Z,11.88
2023-04-22T18:35:35.601Z,13.13
2023-04-22T18:38:03.068Z,14.95
2023-04-22T18:40:30.796Z,16.27
2023-04-22T18:42:58.321Z,14.70
2023-04-22T18:45:25.782Z,14.87
2023-04-22T18:47:53.522Z,12.65
2023-04-22T18:50:27.157Z,9.57
2023-04-22T18:52:54.888Z,12.48
2023-04-22T18:55:22.479Z,12.55
2023-04-22T18:57:49.893Z,15.27
2023-04-22T19:00:17.904Z,13.80
2023-04-22T19:02:46.013Z,15.80
2023-04-22T19:05:14.556Z,12.43
2023-04-22T19:07:44.455Z,14.77
2023-04-22T19:10:12.853Z,15.23
2023-04-22T19:12:40.447Z,14.52
2023-04-22T19:15:08.601Z,10.43
2023-04-22T19:17:36.115Z,13.23
2023-04-22T19:20:05.211Z,10.63
2023-04-22T19:22:32.973Z,13.23
2023-04-22T19:25:01.082Z,13.65
2023-04-22T19:27:28.727Z,12.55
2023-04-22T19:29:56.403Z,15.15
2023-04-22T19:32:24.531Z,13.90
2023-04-22T19:34:52.258Z,15.60
2023-04-22T19:37:20.192Z,13.48
2023-04-22T19:39:47.928Z,15.35
2023-04-22T19:42:15.759Z,16.62
2023-04-22T19:44:47.252Z,17.50
2023-04-22T19:47:15.679Z,15.05
2023-04-22T19:49:43.984Z,17.12
2023-04-22T19:52:13.843Z,17.30
2023-04-22T19:54:41.713Z,17.05
2023-04-22T19:57:10.429Z,21.87
2023-04-22T19:59:40.048Z,22.58
2023-04-22T20:02:09.640Z,22.17
2023-04-22T20:04:38.220Z,20.02
2023-04-22T20:07:06.904Z,21.45
2023-04-22T20:09:34.974Z,21.42
2023-04-22T20:12:03.374Z,24.23
2023-04-22T20:14:31.546Z,25.67
2023-04-22T20:16:59.178Z,19.70
2023-04-22T20:19:28.343Z,21.67
2023-04-22T20:21:57.330Z,25.70
2023-04-22T20:24:26.713Z,20.00
2023-04-22T20:26:55.039Z,23.20
2023-04-22T20:29:22.764Z,19.95
2023-04-22T20:31:50.374Z,21.40
2023-04-22T20:34:18.278Z,22.37
2023-04-22T20:36:46.265Z,20.12
2023-04-22T20:39:14.540Z,20.85
2023-04-22T20:41:42.562Z,22.25
2023-04-22T20:44:10.669Z,25.08
2023-04-22T20:46:38.386Z,24.70
2023-04-22T20:49:07.068Z,18.08
2023-04-22T20:51:35.223Z,21.23
2023-04-22T20:54:03.846Z,23.77
2023-04-22T20:56:39.904Z,20.95
2023-04-22T20:59:07.474Z,19.45
2023-04-22T21:01:35.512Z,17.87
2023-04-22T21:04:03.754Z,18.98
2023-04-22T21:06:35.053Z,21.67
2023-04-22T21:09:03.382Z,17.40
2023-04-22T21:11:31.158Z,21.08
2023-04-22T21:13:59.289Z,21.92
2023-04-22T21:16:29.763Z,20.58
2023-04-22T21:18:59.782Z,23.12
2023-04-22T21:21:34.888Z,18.92
2023-04-22T21:24:04.903Z,20.25
2023-04-22T21:26:34.070Z,23.05
2023-04-22T21:29:01.701Z,20.95
2023-04-22T21:31:29.389Z,20.55
2023-04-22T21:33:57.455Z,19.62
2023-04-22T21:36:25.256Z,18.50
2023-04-22T21:38:52.934Z,19.50
2023-04-22T21:41:20.954Z,19.20
2023-04-22T21:43:48.767Z,18.52
2023-04-22T21:46:16.214Z,13.40
2023-04-22T21:48:44.344Z,13.45
2023-04-22T21:51:11.912Z,13.62
2023-04-22T21:53:39.279Z,17.30
2023-04-22T21:56:06.961Z,14.43
2023-04-22T21:58:34.400Z,20.20
2023-04-22T22:01:01.820Z,15.07
2023-04-22T22:03:29.682Z,14.52
2023-04-22T22:05:57.472Z,15.48
2023-04-22T22:08:24.865Z,13.02
2023-04-22T22:10:52.604Z,18.25
2023-04-22T22:13:20.069Z,14.93
2023-04-22T22:15:47.679Z,16.10
2023-04-22T22:18:15.665Z,17.83
2023-04-22T22:20:44.459Z,18.08
2023-04-22T22:23:12.074Z,20.37
2023-04-22T22:25:39.724Z,11.70
2023-04-22T22:28:07.131Z,15.50
2023-04-22T22:30:34.567Z,15.38
2023-04-22T22:33:02.332Z,15.52
2023-04-22T22:35:30.180Z,15.70
2023-04-22T22:37:57.609Z,15.07
2023-04-22T22:40:25.458Z,11.85
2023-04-22T22:42:53.205Z,11.12
2023-04-22T22:45:20.584Z,13.70
2023-04-22T22:47:48.424Z,14.93
2023-04-22T22:50:15.920Z,15.02
2023-04-22T22:52:43.311Z,11.60
2023-04-22T22:55:11.077Z,14.55
2023-04-22T22:57:38.486Z,10.50
2023-04-22T23:00:07.084Z,12.10
2023-04-22T23:02:35.115Z,12.52
2023-04-22T23:05:02.753Z,12.05
2023-04-22T23:07:30.228Z,11.10
2023-04-22T23:09:58.037Z,11.18
2023-04-22T23:12:25.589Z,12.13
2023-04-22T23:14:53.222Z,11.38
2023-04-22T23:17:22.439Z,11.82
2023-04-22T23:19:51.894Z,11.80
2023-04-22T23:22:19.351Z,11.40
2023-04-22T23:24:47.611Z,12.57
2023-04-22T23:27:16.209Z,9.90
2023-04-22T23:29:44.354Z,9.75
2023-04-22T23:32:14.952Z,7.82
2023-04-22T23:34:44.935Z,9.93
2023-04-22T23:37:14.894Z,12.40
2023-04-22T23:39:42.555Z,10.50
2023-04-22T23:42:10.828Z,9.07
2023-04-22T23:44:38.854Z,9.02
2023-04-22T23:47:06.506Z,8.68
2023-04-22T23:49:34.130Z,9.15
2023-04-22T23:52:01.810Z,11.90
2023-04-22T23:54:30.152Z,10.52
2023-04-22T23:56:58.029Z,11.57
2023-04-22T23:59:26.072Z,8.30
